Time;durP1;ratioP1;P1;durP2;ratioP2;P2;SDS_P1;SDS_P2;PMS_P1;PMS_P2;Temp;Humidity;BMP_temperature;BMP_pressure;BME280_temperature;BME280_humidity;BME280_pressure;Samples;Min_cycle;Max_cycle;Signal;HPM_P1;HPM_P2
2022/11/14 00:01:26;;;;;;;3.67;3.15;;;;;;;21.08;27.88;100662.19;4534116;28;20148;-65
2022/11/14 00:03:55;;;;;;;4.28;3.35;;;;;;;21.06;27.75;100656.84;4533978;28;20048;-65
2022/11/14 00:06:24;;;;;;;4.13;3.47;;;;;;;21.06;28.03;100651.09;4534452;28;20232;-65
2022/11/14 00:08:53;;;;;;;3.95;3.30;;;;;;;21.06;27.73;100653.16;4536088;28;20140;-65
2022/11/14 00:11:22;;;;;;;3.80;3.20;;;;;;;21.05;27.73;100655.19;4536252;28;20049;-65
2022/11/14 00:13:51;;;;;;;3.97;3.28;;;;;;;21.05;27.62;100649.44;4536377;28;20033;-65
2022/11/14 00:16:20;;;;;;;3.95;3.33;;;;;;;21.05;27.76;100654.34;4536862;28;20612;-65
2022/11/14 00:18:50;;;;;;;3.78;3.20;;;;;;;21.04;27.97;100642.00;4533772;28;20592;-65
2022/11/14 00:21:19;;;;;;;3.90;3.13;;;;;;;21.03;27.75;100646.09;4535988;28;20049;-66
2022/11/14 00:23:48;;;;;;;4.20;3.55;;;;;;;21.03;27.72;100645.25;4537023;28;20053;-65
2022/11/14 00:26:17;;;;;;;4.10;3.20;;;;;;;21.02;27.80;100641.56;4537871;28;20068;-65
2022/11/14 00:28:46;;;;;;;4.30;3.50;;;;;;;21.02;27.73;100638.69;4536056;28;20045;-65
2022/11/14 00:31:15;;;;;;;4.28;3.53;;;;;;;21.02;27.76;100637.84;4534988;28;20044;-65
2022/11/14 00:33:44;;;;;;;4.63;3.70;;;;;;;21.01;27.70;100631.28;4537129;28;20045;-66
2022/11/14 00:36:13;;;;;;;4.28;3.55;;;;;;;20.99;27.78;100627.97;4535360;28;20042;-65
2022/11/14 00:38:42;;;;;;;4.28;3.50;;;;;;;21.00;27.68;100623.03;4536534;28;20033;-65
2022/11/14 00:41:11;;;;;;;4.10;3.45;;;;;;;21.00;27.49;100626.75;4537310;28;20482;-65
2022/11/14 00:43:40;;;;;;;4.82;3.63;;;;;;;21.01;27.78;100624.72;4525840;28;20383;-65
2022/11/14 00:46:09;;;;;;;4.53;3.92;;;;;;;20.99;27.57;100627.97;4537728;28;20072;-65
2022/11/14 00:48:38;;;;;;;5.00;3.78;;;;;;;20.99;27.60;100619.34;4537664;28;20041;-65
2022/11/14 00:51:07;;;;;;;5.03;3.92;;;;;;;21.00;27.65;100614.44;4537644;28;20053;-65
2022/11/14 00:53:37;;;;;;;4.22;3.83;;;;;;;20.99;27.67;100604.16;4536576;28;20045;-65
2022/11/14 00:56:06;;;;;;;4.40;3.63;;;;;;;20.98;27.97;100609.06;4534387;28;20045;-66
2022/11/14 00:58:35;;;;;;;5.03;4.10;;;;;;;20.98;27.70;100614.78;4536467;28;20053;-65
2022/11/14 01:01:04;;;;;;;4.05;3.53;;;;;;;20.98;27.70;100603.31;4535128;28;20041;-65
2022/11/14 01:03:33;;;;;;;4.88;3.95;;;;;;;20.97;27.86;100601.66;4535261;28;21306;-65
2022/11/14 01:06:06;;;;;;;5.03;3.58;;;;;;;20.96;27.72;100600.00;4536498;28;20033;-65
2022/11/14 01:08:35;;;;;;;4.70;3.92;;;;;;;20.97;27.83;100595.94;4535720;28;20041;-65
2022/11/14 01:11:09;;;;;;;4.97;4.07;;;;;;;20.96;27.72;100582.78;4534385;28;20045;-65
2022/11/14 01:13:38;;;;;;;4.55;3.95;;;;;;;20.96;27.92;100585.66;4534592;28;20041;-67
2022/11/14 01:16:08;;;;;;;4.28;3.85;;;;;;;20.96;28.04;100581.91;4537232;28;20041;-65
2022/11/14 01:18:39;;;;;;;4.78;3.97;;;;;;;20.94;27.87;100579.41;4533971;28;20041;-65
2022/11/14 01:21:10;;;;;;;5.25;4.00;;;;;;;20.94;27.82;100573.69;4536589;28;20037;-65
2022/11/14 01:23:39;;;;;;;5.50;4.45;;;;;;;20.91;27.73;100568.69;4537726;28;20049;-65
2022/11/14 01:26:11;;;;;;;6.18;4.07;;;;;;;20.93;27.81;100559.72;4535520;28;20045;-65
2022/11/14 01:28:41;;;;;;;5.75;4.22;;;;;;;20.93;27.81;100554.78;4534917;28;20085;-65
2022/11/14 01:31:22;;;;;;;5.32;4.25;;;;;;;20.92;28.04;100547.38;4532261;28;20049;-66
2022/11/14 01:33:52;;;;;;;5.00;4.07;;;;;;;20.93;27.84;100551.09;4536098;28;20049;-68
2022/11/14 01:36:21;;;;;;;4.68;3.97;;;;;;;20.91;27.57;100540.00;4535809;28;20467;-66
2022/11/14 01:38:52;;;;;;;5.03;4.10;;;;;;;20.92;28.13;100549.41;4534708;28;20052;-64
2022/11/14 01:41:21;;;;;;;5.25;4.25;;;;;;;20.90;28.14;100538.31;4535933;28;20045;-67
2022/11/14 01:43:50;;;;;;;5.20;4.10;;;;;;;20.90;28.16;100531.75;4536901;28;20033;-67
2022/11/14 01:46:33;;;;;;;5.20;4.18;;;;;;;20.90;27.94;100526.03;4533676;28;20049;-66
2022/11/14 01:49:13;;;;;;;5.05;4.05;;;;;;;20.90;28.03;100521.09;4533519;28;20635;-65
2022/11/14 01:51:49;;;;;;;4.70;3.83;;;;;;;20.89;27.88;100510.84;4534821;28;20181;-66
2022/11/14 01:54:27;;;;;;;4.90;3.80;;;;;;;20.89;28.06;100510.84;4533643;28;20627;-65
2022/11/14 01:57:01;;;;;;;4.72;3.83;;;;;;;20.89;27.97;100507.13;4536719;28;20124;-65
2022/11/14 01:59:36;;;;;;;4.78;4.20;;;;;;;20.87;27.80;100504.63;4535147;28;20045;-65
2022/11/14 02:02:12;;;;;;;4.53;3.75;;;;;;;20.88;28.00;100509.19;4536818;28;20402;-65
2022/11/14 02:04:49;;;;;;;5.45;4.20;;;;;;;20.88;28.05;100505.47;4534956;28;20300;-65
2022/11/14 02:07:18;;;;;;;5.45;4.13;;;;;;;20.87;27.99;100501.75;4534739;28;20045;-65
2022/11/14 02:09:48;;;;;;;5.05;4.10;;;;;;;20.85;27.81;100501.31;4535805;28;20033;-65
2022/11/14 02:12:18;;;;;;;4.90;3.95;;;;;;;20.86;27.99;100493.53;4534952;28;20056;-65
2022/11/14 02:14:51;;;;;;;4.97;4.05;;;;;;;20.85;28.08;100504.19;4534547;28;21281;-65
2022/11/14 02:17:21;;;;;;;5.20;4.10;;;;;;;20.84;27.88;100502.50;4535603;28;20048;-65
2022/11/14 02:19:53;;;;;;;5.32;4.07;;;;;;;20.85;27.75;100494.75;4534867;28;20053;-64
2022/11/14 02:22:23;;;;;;;5.38;4.20;;;;;;;20.84;27.90;100496.78;4535262;28;20045;-65
2022/11/14 02:24:52;;;;;;;5.18;4.18;;;;;;;20.84;28.03;100493.91;4535962;28;21000;-65
2022/11/14 02:27:21;;;;;;;5.13;4.22;;;;;;;20.83;28.14;100486.50;4536341;28;20048;-65
2022/11/14 02:29:50;;;;;;;5.53;4.35;;;;;;;20.83;28.00;100485.66;4535773;28;20036;-65
2022/11/14 02:32:19;;;;;;;5.40;4.38;;;;;;;20.83;27.80;100475.03;4537580;28;20057;-65
2022/11/14 02:34:48;;;;;;;5.68;4.20;;;;;;;20.80;27.78;100479.47;4535582;28;20561;-65
2022/11/14 02:37:17;;;;;;;4.63;4.03;;;;;;;20.81;28.05;100486.03;4535308;28;20423;-65
2022/11/14 02:39:47;;;;;;;5.78;4.40;;;;;;;20.81;27.85;100477.44;4536927;28;20048;-65
2022/11/14 02:42:16;;;;;;;5.53;4.32;;;;;;;20.81;28.08;100477.44;4533927;28;20049;-65
2022/11/14 02:44:45;;;;;;;5.68;4.25;;;;;;;20.81;27.96;100474.56;4535942;28;20042;-65
2022/11/14 02:47:14;;;;;;;5.95;4.50;;;;;;;20.80;27.78;100470.84;4535093;28;20049;-65
2022/11/14 02:49:43;;;;;;;5.15;4.13;;;;;;;20.79;27.94;100471.22;4537359;28;20049;-65
2022/11/14 02:52:12;;;;;;;5.00;4.20;;;;;;;20.78;28.01;100472.44;4535780;28;20734;-65
2022/11/14 02:54:41;;;;;;;4.32;3.63;;;;;;;20.77;27.87;100465.88;4535368;28;20045;-65
2022/11/14 02:57:10;;;;;;;5.25;4.20;;;;;;;20.77;28.15;100462.19;4536330;28;20845;-65
2022/11/14 02:59:39;;;;;;;5.47;4.32;;;;;;;20.77;28.03;100459.31;4535004;28;20049;-65
2022/11/14 03:02:08;;;;;;;4.90;4.05;;;;;;;20.77;27.98;100459.31;4535046;28;20041;-65
2022/11/14 03:04:37;;;;;;;5.93;4.57;;;;;;;20.75;28.11;100456.81;4529556;28;20037;-65
2022/11/14 03:07:06;;;;;;;5.53;4.00;;;;;;;20.75;28.16;100444.50;4535563;28;20041;-65
2022/11/14 03:09:35;;;;;;;5.13;4.30;;;;;;;20.77;27.99;100444.97;4535136;28;20041;-65
2022/11/14 03:12:04;;;;;;;5.65;4.20;;;;;;;20.74;28.32;100445.69;4530904;28;20045;-65
2022/11/14 03:14:33;;;;;;;5.47;4.15;;;;;;;20.75;28.31;100444.50;4535760;28;20088;-65
2022/11/14 03:17:02;;;;;;;5.35;3.97;;;;;;;20.74;28.24;100437.09;4534991;28;20794;-65
2022/11/14 03:19:31;;;;;;;5.30;4.20;;;;;;;20.74;28.18;100437.09;4536083;28;20120;-65
2022/11/14 03:22:00;;;;;;;5.15;4.18;;;;;;;20.72;28.37;100422.31;4535569;28;20042;-65
2022/11/14 03:24:29;;;;;;;4.97;4.10;;;;;;;20.69;28.24;100420.19;4532040;28;20620;-65
2022/11/14 03:26:58;;;;;;;5.45;4.07;;;;;;;20.72;28.50;100425.19;4535169;28;20127;-65
2022/11/14 03:29:28;;;;;;;4.90;4.40;;;;;;;20.66;28.22;100420.94;4536009;28;20045;-65
2022/11/14 03:31:56;;;;;;;5.25;4.00;;;;;;;20.71;28.24;100412.88;4534181;28;20056;-65
2022/11/14 03:34:25;;;;;;;5.10;4.10;;;;;;;20.71;28.62;100421.47;4534489;28;20053;-65
2022/11/14 03:36:54;;;;;;;5.20;4.18;;;;;;;20.71;28.45;100414.88;4533621;28;20049;-65
2022/11/14 03:39:23;;;;;;;6.63;4.43;;;;;;;20.70;28.30;100414.06;4536086;28;20033;-65
2022/11/14 03:41:52;;;;;;;5.57;4.30;;;;;;;20.70;28.34;100424.72;4534313;28;20049;-65
2022/11/14 03:44:21;;;;;;;4.95;3.97;;;;;;;20.69;28.68;100432.47;4535290;28;20525;-65
2022/11/14 03:46:51;;;;;;;4.95;4.13;;;;;;;20.69;28.40;100418.13;4537392;28;20033;-65
2022/11/14 03:49:20;;;;;;;5.07;4.15;;;;;;;20.69;28.50;100417.31;4539201;28;20069;-65
2022/11/14 03:51:49;;;;;;;4.60;4.00;;;;;;;20.68;28.49;100419.34;4535676;28;21303;-65
2022/11/14 03:54:18;;;;;;;5.50;4.25;;;;;;;20.67;28.61;100419.72;4539294;28;20049;-65
2022/11/14 03:56:47;;;;;;;4.85;3.92;;;;;;;20.68;28.34;100421.38;4537523;28;20045;-65
2022/11/14 03:59:16;;;;;;;5.55;4.10;;;;;;;20.59;28.65;100413.00;4536301;28;20041;-65
2022/11/14 04:01:45;;;;;;;5.38;4.30;;;;;;;20.66;28.43;100410.28;4536681;28;20049;-66
2022/11/14 04:04:14;;;;;;;5.00;3.90;;;;;;;20.66;28.35;100418.06;4538717;28;20123;-65
2022/11/14 04:06:44;;;;;;;5.00;4.00;;;;;;;20.67;28.46;100419.72;4539033;28;20710;-65
2022/11/14 04:09:13;;;;;;;4.85;3.88;;;;;;;20.65;28.43;100410.66;4537218;28;20049;-65
2022/11/14 04:11:42;;;;;;;5.22;4.00;;;;;;;20.66;28.32;100412.34;4536285;28;20624;-65
2022/11/14 04:14:11;;;;;;;5.03;4.22;;;;;;;20.65;28.46;100405.75;4538090;28;20045;-65
2022/11/14 04:16:40;;;;;;;5.10;4.05;;;;;;;20.64;28.72;100403.25;4538259;28;20049;-65
2022/11/14 04:19:09;;;;;;;4.93;3.85;;;;;;;20.64;28.42;100398.34;4535601;28;20041;-65
2022/11/14 04:21:38;;;;;;;5.43;4.20;;;;;;;20.62;28.41;100389.28;4537260;28;20052;-65
2022/11/14 04:24:07;;;;;;;5.53;4.30;;;;;;;20.62;28.47;100391.31;4537381;28;20049;-65
2022/11/14 04:26:36;;;;;;;4.97;4.00;;;;;;;20.63;28.63;100390.09;4535941;28;20044;-65
2022/11/14 04:29:05;;;;;;;4.72;3.90;;;;;;;20.62;28.00;100395.03;4536176;28;20537;-65
2022/11/14 04:31:34;;;;;;;4.82;3.97;;;;;;;20.61;28.38;100387.63;4535792;28;20045;-66
2022/11/14 04:34:03;;;;;;;4.72;3.88;;;;;;;20.61;28.54;100378.19;4538292;28;20049;-66
2022/11/14 04:36:32;;;;;;;4.45;3.55;;;;;;;20.60;28.55;100379.38;4534842;28;20049;-65
2022/11/14 04:39:01;;;;;;;5.35;3.83;;;;;;;20.54;28.55;100357.94;4537685;28;20092;-65
2022/11/14 04:41:30;;;;;;;4.50;3.80;;;;;;;20.60;28.38;100377.34;4536768;28;20049;-66
2022/11/14 04:43:59;;;;;;;5.38;3.88;;;;;;;20.60;28.41;100370.78;4534246;28;20053;-66
2022/11/14 04:46:28;;;;;;;4.63;3.80;;;;;;;20.60;28.42;100367.91;4537254;28;20045;-65
2022/11/14 04:48:57;;;;;;;4.65;3.63;;;;;;;20.59;28.39;100367.09;4536850;28;20045;-66
2022/11/14 04:51:26;;;;;;;4.78;3.97;;;;;;;20.60;28.26;100362.19;4535484;28;20041;-66
2022/11/14 04:53:55;;;;;;;5.13;3.88;;;;;;;20.61;28.56;100363.88;4536045;28;20045;-66
2022/11/14 04:56:24;;;;;;;4.38;3.65;;;;;;;20.50;28.45;100352.13;4536730;28;20053;-65
2022/11/14 04:58:53;;;;;;;4.95;4.07;;;;;;;20.57;28.61;100366.63;4536152;28;20037;-65
2022/11/14 05:01:22;;;;;;;4.68;3.83;;;;;;;20.56;28.35;100361.28;4536287;28;20045;-65
2022/11/14 05:03:51;;;;;;;4.60;3.70;;;;;;;20.50;28.47;100351.31;4536481;28;20041;-66
2022/11/14 05:06:20;;;;;;;5.07;3.90;;;;;;;20.56;28.59;100361.28;4534631;28;20163;-65
2022/11/14 05:08:49;;;;;;;4.20;3.63;;;;;;;20.56;28.28;100372.75;4538145;28;20025;-65
2022/11/14 05:11:19;;;;;;;4.53;3.63;;;;;;;20.53;28.34;100362.03;4537961;28;20588;-66
2022/11/14 05:13:48;;;;;;;4.60;3.72;;;;;;;20.53;28.26;100364.91;4537281;28;20045;-66
2022/11/14 05:16:17;;;;;;;4.65;3.60;;;;;;;20.53;28.36;100359.16;4534707;28;20053;-65
2022/11/14 05:18:46;;;;;;;4.38;3.53;;;;;;;20.52;28.42;100355.44;4536912;28;20049;-66
2022/11/14 05:21:15;;;;;;;4.95;3.92;;;;;;;20.52;28.35;100358.31;4537580;28;20045;-66
2022/11/14 05:23:44;;;;;;;4.78;3.83;;;;;;;20.52;28.25;100355.44;4536497;28;20335;-66
2022/11/14 05:26:16;;;;;;;4.60;3.90;;;;;;;20.52;28.53;100360.34;4533978;28;20611;-66
2022/11/14 05:28:45;;;;;;;4.28;3.40;;;;;;;20.50;28.32;100357.84;4537331;28;20133;-66
2022/11/14 05:31:17;;;;;;;4.57;3.63;;;;;;;20.51;28.28;100359.53;4533828;28;20569;-66
2022/11/14 05:33:47;;;;;;;4.55;3.67;;;;;;;20.45;28.59;100343.00;4535870;28;20072;-65
2022/11/14 05:36:16;;;;;;;4.30;3.42;;;;;;;20.52;28.45;100360.34;4536465;28;20044;-66
2022/11/14 05:38:44;;;;;;;4.25;3.47;;;;;;;20.50;28.46;100357.03;4535480;28;20742;-65
2022/11/14 05:41:16;;;;;;;4.70;3.70;;;;;;;20.51;28.12;100364.44;4536596;28;20147;-65
2022/11/14 05:43:45;;;;;;;4.18;3.55;;;;;;;20.44;28.44;100352.78;4535288;28;20056;-66
2022/11/14 05:46:15;;;;;;;3.97;3.58;;;;;;;20.44;28.44;100361.38;4536685;28;20037;-66
2022/11/14 05:48:44;;;;;;;4.53;3.80;;;;;;;20.49;28.51;100363.97;4535306;28;20053;-66
2022/11/14 05:51:13;;;;;;;4.57;3.83;;;;;;;20.49;28.51;100364.81;4535814;28;20044;-66
2022/11/14 05:53:43;;;;;;;4.60;3.80;;;;;;;20.48;28.45;100368.88;4536010;28;20778;-65
2022/11/14 05:56:12;;;;;;;4.28;3.42;;;;;;;20.48;28.49;100362.31;4536975;28;20049;-66
2022/11/14 05:58:41;;;;;;;4.30;3.47;;;;;;;20.47;28.46;100352.06;4536229;28;20037;-65
2022/11/14 06:01:15;;;;;;;4.03;3.38;;;;;;;20.47;28.35;100358.59;4535914;28;20045;-66
2022/11/14 06:03:46;;;;;;;3.63;3.22;;;;;;;20.46;28.68;100345.47;4532308;28;20763;-65
2022/11/14 06:06:18;;;;;;;4.85;3.30;;;;;;;20.46;28.44;100361.84;4536466;28;20789;-67
2022/11/14 06:08:47;;;;;;;4.15;3.35;;;;;;;20.46;28.32;100361.84;4535147;28;20041;-66
2022/11/14 06:11:18;;;;;;;4.03;3.50;;;;;;;20.45;28.66;100363.06;4536311;28;20049;-65
2022/11/14 06:13:48;;;;;;;4.07;3.45;;;;;;;20.44;28.54;100353.63;4535025;28;20046;-66
2022/11/14 06:16:18;;;;;;;4.07;3.47;;;;;;;20.43;28.52;100356.84;4532824;28;20322;-66
2022/11/14 06:18:47;;;;;;;4.22;3.45;;;;;;;20.44;28.61;100353.63;4535956;28;20576;-65
2022/11/14 06:21:19;;;;;;;4.70;3.60;;;;;;;20.43;28.37;100356.84;4536122;28;20045;-66
2022/11/14 06:23:49;;;;;;;4.22;3.15;;;;;;;20.43;28.45;100356.84;4535783;28;20979;-66
2022/11/14 06:26:23;;;;;;;4.45;3.78;;;;;;;20.41;28.42;100357.22;4535122;28;20128;-66
2022/11/14 06:28:52;;;;;;;4.60;3.55;;;;;;;20.43;28.42;100354.00;4535118;28;20591;-66
2022/11/14 06:31:22;;;;;;;4.40;3.50;;;;;;;20.42;28.48;100352.34;4534222;28;20038;-66
2022/11/14 06:33:51;;;;;;;3.97;3.38;;;;;;;20.41;28.72;100362.13;4535467;28;20049;-66
2022/11/14 06:36:20;;;;;;;3.88;3.30;;;;;;;20.41;28.49;100360.09;4533845;28;20537;-66
2022/11/14 06:38:50;;;;;;;4.90;3.50;;;;;;;20.39;28.57;100351.03;4534112;28;20041;-66
2022/11/14 06:41:21;;;;;;;4.10;3.30;;;;;;;20.40;28.54;100349.00;4535069;28;20041;-66
2022/11/14 06:43:54;;;;;;;4.22;3.40;;;;;;;20.39;28.66;100353.91;4532390;28;20049;-65
2022/11/14 06:46:23;;;;;;;4.05;3.40;;;;;;;20.39;28.81;100356.75;4533332;28;20073;-66
2022/11/14 06:48:52;;;;;;;3.97;3.58;;;;;;;20.38;28.29;100360.00;4533325;28;20037;-66
2022/11/14 06:51:21;;;;;;;3.72;3.22;;;;;;;20.38;28.54;100355.09;4535253;28;20049;-65
2022/11/14 06:53:50;;;;;;;4.25;3.50;;;;;;;20.39;28.74;100359.63;4534815;28;20045;-66
2022/11/14 06:56:19;;;;;;;3.65;3.15;;;;;;;20.37;28.80;100353.47;4530662;28;20493;-66
2022/11/14 06:58:49;;;;;;;3.83;3.25;;;;;;;20.39;28.96;100355.94;4533221;28;20065;-66
2022/11/14 07:01:21;;;;;;;4.00;3.30;;;;;;;20.37;28.78;100353.47;4534729;28;20048;-66
2022/11/14 07:03:50;;;;;;;4.15;3.58;;;;;;;20.37;28.52;100358.34;4532339;28;20045;-66
2022/11/14 07:06:22;;;;;;;3.90;3.28;;;;;;;20.36;28.59;100356.69;4532398;28;20597;-66
2022/11/14 07:08:52;;;;;;;4.15;3.28;;;;;;;20.25;28.87;100349.84;4533766;28;20040;-66
2022/11/14 07:11:26;;;;;;;4.20;3.40;;;;;;;20.27;28.93;100358.91;4533684;28;20044;-66
2022/11/14 07:13:58;;;;;;;3.70;3.28;;;;;;;20.32;28.94;100361.50;4533798;28;20593;-66
2022/11/14 07:16:36;;;;;;;4.43;3.53;;;;;;;20.35;29.04;100367.31;4532263;28;20144;-66
2022/11/14 07:19:09;;;;;;;4.38;3.30;;;;;;;20.35;28.94;100364.47;4532837;28;20049;-66
2022/11/14 07:21:39;;;;;;;3.75;3.25;;;;;;;20.35;29.03;100349.28;4536268;28;21316;-66
2022/11/14 07:45:30;;;;;;;4.15;3.22;;;;;;;20.32;29.14;100332.81;4534124;28;20052;-65
2022/11/14 07:48:00;;;;;;;4.68;3.38;;;;;;;20.31;29.10;100322.56;4533545;28;20037;-65
2022/11/14 07:54:02;;;;;;;4.25;3.63;;;;;;;20.22;29.65;100317.03;4532351;28;20422;-65
2022/11/14 07:56:31;;;;;;;4.05;3.22;;;;;;;20.30;29.64;100326.63;4532337;28;20045;-64
2022/11/14 07:59:00;;;;;;;4.28;3.25;;;;;;;20.28;29.57;100327.00;4534497;28;20041;-65
2022/11/14 08:01:29;;;;;;;4.13;3.30;;;;;;;20.28;29.79;100326.19;4535235;28;20033;-65
2022/11/14 08:03:58;;;;;;;3.65;3.03;;;;;;;20.28;29.89;100327.00;4535267;28;20069;-64
2022/11/14 08:06:27;;;;;;;3.85;3.30;;;;;;;20.28;29.78;100320.47;4536671;28;20049;-64
2022/11/14 08:08:57;;;;;;;4.03;3.30;;;;;;;20.28;29.97;100314.72;4534429;28;20045;-64
2022/11/14 08:14:15;;;;;;;4.18;3.42;;;;;;;20.25;29.94;100309.72;4533201;28;20069;-64
2022/11/14 08:16:44;;;;;;;4.13;3.30;;;;;;;20.26;30.06;100306.50;4533653;28;20490;-64
2022/11/14 08:19:15;;;;;;;3.50;2.80;;;;;;;20.26;30.17;100306.50;4534211;28;20049;-64
2022/11/14 08:25:29;;;;;;;4.53;3.65;;;;;;;20.25;30.20;100309.72;4533933;28;20029;-64
2022/11/14 08:27:58;;;;;;;4.20;3.50;;;;;;;20.26;30.24;100305.66;4533872;28;20598;-64
2022/11/14 11:13:56;;;;;;;5.43;3.30;;;;;;;20.37;33.76;100286.69;4500419;28;20903;-71
2022/11/14 11:16:27;;;;;;;4.95;3.47;;;;;;;20.37;34.02;100289.56;4498443;28;20140;-71
2022/11/14 11:19:23;;;;;;;4.20;3.28;;;;;;;20.37;33.77;100290.41;4504203;28;21010;-71
2022/11/14 11:21:52;;;;;;;3.60;3.10;;;;;;;20.39;33.82;100292.88;4503644;28;20046;-71
2022/11/14 11:24:30;;;;;;;4.22;3.50;;;;;;;20.39;33.84;100284.28;4503532;28;20038;-70
2022/11/14 11:27:12;;;;;;;4.40;3.65;;;;;;;20.39;33.68;100279.38;4503751;28;20038;-71
2022/11/14 11:29:41;;;;;;;3.78;3.38;;;;;;;20.40;33.44;100274.47;4503076;28;20049;-70
2022/11/14 11:32:09;;;;;;;3.80;3.40;;;;;;;20.34;33.15;100268.19;4502860;28;20045;-70
2022/11/14 11:34:39;;;;;;;4.43;3.22;;;;;;;20.40;33.44;100274.47;4503252;28;20085;-71
2022/11/14 11:37:16;;;;;;;4.22;3.13;;;;;;;20.38;32.91;100268.28;4503127;28;20137;-71
2022/11/14 11:39:55;;;;;;;3.83;3.35;;;;;;;20.41;32.86;100270.38;4503191;28;20832;-71
2022/11/14 11:42:38;;;;;;;4.35;3.47;;;;;;;20.40;32.66;100260.97;4503301;28;20038;-71
2022/11/14 11:45:16;;;;;;;3.47;3.00;;;;;;;20.42;32.96;100252.00;4503142;28;20054;-72
2022/11/14 11:48:04;;;;;;;4.38;3.20;;;;;;;20.39;33.06;100247.03;4503462;28;20042;-73
2022/11/14 11:50:34;;;;;;;4.13;3.00;;;;;;;20.42;32.68;100257.75;4503265;28;20038;-73
2022/11/14 11:53:15;;;;;;;4.20;3.22;;;;;;;20.40;33.40;100263.00;4497951;28;20585;-72
2022/11/14 11:55:48;;;;;;;4.13;3.40;;;;;;;20.40;33.60;100255.25;4503365;28;20073;-72
2022/11/14 11:58:42;;;;;;;4.30;2.97;;;;;;;20.42;33.91;100254.88;4503807;28;20742;-72
2022/11/14 12:01:12;;;;;;;3.63;3.00;;;;;;;20.40;33.44;100251.53;4516115;28;20042;-72
2022/11/14 12:03:50;;;;;;;3.53;2.80;;;;;;;20.41;33.73;100250.31;4503448;28;20046;-72
2022/11/14 12:06:29;;;;;;;3.00;2.60;;;;;;;20.41;33.68;100248.28;4502054;28;20085;-72
2022/11/14 12:09:04;;;;;;;3.75;2.90;;;;;;;20.42;33.98;100247.06;4500214;28;20038;-72
2022/11/14 12:11:36;;;;;;;3.83;2.95;;;;;;;20.41;34.08;100245.44;4500513;28;20042;-72
2022/11/14 12:14:23;;;;;;;3.63;2.80;;;;;;;20.42;34.53;100246.28;4512668;28;20639;-73
2022/11/14 12:17:18;;;;;;;3.63;3.10;;;;;;;20.41;34.49;100245.44;4500394;28;20050;-73
2022/11/14 12:20:08;;;;;;;3.70;2.70;;;;;;;20.44;34.28;100243.84;4500471;28;20050;-73
2022/11/14 12:23:13;;;;;;;3.63;2.85;;;;;;;20.42;34.55;100240.53;4499933;28;20042;-73
2022/11/14 12:26:12;;;;;;;3.10;2.80;;;;;;;20.45;34.46;100236.91;4500087;28;20046;-73
2022/11/14 12:28:57;;;;;;;2.83;2.53;;;;;;;20.46;34.80;100232.84;4500220;28;20046;-73
2022/11/14 12:31:32;;;;;;;3.50;2.63;;;;;;;20.37;35.06;100226.50;4500169;28;20137;-73
2022/11/14 12:34:10;;;;;;;3.40;2.67;;;;;;;20.48;35.12;100236.16;4500115;28;20561;-73
2022/11/14 12:36:43;;;;;;;3.40;2.70;;;;;;;20.47;35.07;100232.47;4500384;28;20046;-73
2022/11/14 12:39:28;;;;;;;4.07;2.78;;;;;;;20.48;34.92;100227.56;4500734;28;20628;-72
2022/11/14 12:42:03;;;;;;;2.90;2.60;;;;;;;20.49;34.89;100234.94;4499981;28;20053;-71
2022/11/14 12:44:38;;;;;;;3.30;2.55;;;;;;;20.50;34.96;100219.44;4500473;28;20046;-72
2022/11/14 12:47:07;;;;;;;3.33;2.90;;;;;;;20.52;35.13;100222.72;4499878;28;20042;-72
2022/11/14 12:49:56;;;;;;;3.53;3.00;;;;;;;20.54;35.27;100217.44;4500032;28;20133;-71
2022/11/14 12:52:43;;;;;;;3.55;2.80;;;;;;;20.57;35.43;100217.53;4499866;28;20049;-73
2022/11/14 12:55:25;;;;;;;3.33;2.60;;;;;;;20.58;35.11;100216.31;4499796;28;20501;-71
2022/11/14 12:58:25;;;;;;;3.17;2.58;;;;;;;20.60;35.02;100201.59;4499932;28;20050;-72
2022/11/14 13:00:58;;;;;;;3.78;2.90;;;;;;;20.60;35.13;100198.75;4499687;28;20046;-72
2022/11/14 13:03:39;;;;;;;3.38;2.60;;;;;;;20.59;35.11;100195.06;4500265;28;20042;-72
2022/11/14 13:06:17;;;;;;;3.25;2.90;;;;;;;20.60;35.30;100193.00;4499266;28;20522;-71
2022/11/14 13:09:05;;;;;;;3.55;2.90;;;;;;;20.63;34.80;100212.31;4499639;28;20050;-73
2022/11/14 13:23:26;;;;;;;3.38;2.70;;;;;;;20.68;34.98;100191.94;4497683;28;20573;-73
2022/11/14 13:26:24;;;;;;;3.63;2.78;;;;;;;20.67;34.67;100191.13;4503838;28;20510;-73
2022/11/14 13:28:53;;;;;;;3.10;2.60;;;;;;;20.67;34.88;100190.31;4496433;28;20073;-74
2022/11/14 13:31:35;;;;;;;3.28;2.60;;;;;;;20.67;34.80;100190.31;4504306;28;20042;-73
2022/11/14 13:34:32;;;;;;;3.45;2.67;;;;;;;20.69;34.75;100174.34;4503854;28;20049;-74
2022/11/14 13:37:32;;;;;;;3.08;2.60;;;;;;;20.68;35.15;100164.09;4500681;28;20045;-74
2022/11/14 13:40:35;;;;;;;3.00;2.50;;;;;;;20.72;34.64;100175.66;4502905;28;20042;-73
2022/11/14 13:43:25;;;;;;;3.60;2.65;;;;;;;20.73;34.80;100165.84;4502519;28;20912;-74
2022/11/14 13:46:20;;;;;;;3.15;2.38;;;;;;;20.74;34.99;100158.88;4502699;28;20042;-72
2022/11/14 13:49:26;;;;;;;4.10;3.03;;;;;;;20.74;34.85;100150.28;4502559;28;20046;-73
2022/11/14 13:51:56;;;;;;;3.13;2.53;;;;;;;20.76;34.91;100139.25;4502352;28;20557;-73
2022/11/14 13:54:27;;;;;;;2.95;2.55;;;;;;;20.75;34.72;100134.75;4492824;28;20050;-74
2022/11/14 13:57:05;;;;;;;4.18;2.50;;;;;;;20.78;34.61;100139.72;4502106;28;20038;-73
2022/11/14 13:59:56;;;;;;;2.63;2.33;;;;;;;20.78;34.53;100142.59;4502282;28;20038;-73
2022/11/14 14:02:44;;;;;;;3.75;2.80;;;;;;;20.79;34.83;100136.47;4501996;28;20069;-72
2022/11/14 14:05:31;;;;;;;2.83;2.50;;;;;;;20.80;34.88;100138.13;4502010;28;20750;-73
2022/11/14 14:08:28;;;;;;;3.67;2.40;;;;;;;20.77;34.66;100143.81;4499396;28;20045;-72
2022/11/14 14:11:22;;;;;;;2.90;2.60;;;;;;;20.86;34.81;100143.56;4501883;28;20782;-72
2022/11/14 14:14:01;;;;;;;2.80;2.47;;;;;;;20.87;34.55;100133.75;4501968;28;20966;-73
2022/11/14 14:16:54;;;;;;;3.53;3.05;;;;;;;20.88;34.56;100139.13;4501995;28;20065;-72
2022/11/14 14:19:38;;;;;;;3.22;2.83;;;;;;;20.88;34.30;100155.47;4502495;28;20620;-72
2022/11/14 14:22:18;;;;;;;3.17;2.58;;;;;;;20.86;34.55;100152.16;4502300;28;20046;-73
2022/11/14 14:25:16;;;;;;;2.92;2.60;;;;;;;20.90;34.56;100158.81;4502446;28;20104;-72
2022/11/14 14:28:24;;;;;;;3.33;2.80;;;;;;;20.91;34.50;100166.19;4499362;28;20042;-73
2022/11/14 14:31:15;;;;;;;3.60;2.70;;;;;;;20.92;34.09;100148.59;4428189;28;20256;-73
2022/11/14 14:33:50;;;;;;;3.05;2.65;;;;;;;20.89;34.17;100146.50;4502281;28;20054;-73
2022/11/14 14:36:28;;;;;;;3.92;2.70;;;;;;;20.93;34.21;100158.84;4502733;28;20050;-74
2022/11/14 14:39:17;;;;;;;3.30;2.67;;;;;;;20.93;34.20;100158.84;4502246;28;20651;-74
2022/11/14 14:41:48;;;;;;;3.47;2.70;;;;;;;20.97;34.39;100165.53;4501890;28;20494;-74
2022/11/14 14:44:35;;;;;;;3.45;2.90;;;;;;;20.97;34.00;100165.53;4502352;28;20050;-73
2022/11/14 14:47:39;;;;;;;2.85;2.42;;;;;;;20.98;33.94;100183.59;4502561;28;20038;-74
2022/11/14 14:50:39;;;;;;;3.42;2.63;;;;;;;20.94;34.11;100182.66;4498516;28;20050;-74
2022/11/14 14:53:21;;;;;;;3.45;2.90;;;;;;;20.98;33.95;100184.41;4495891;28;20073;-74
2022/11/14 14:55:56;;;;;;;3.25;2.63;;;;;;;20.98;34.03;100178.66;4503084;28;20435;-74
2022/11/14 14:58:31;;;;;;;2.63;2.28;;;;;;;20.98;34.01;100172.13;4502061;28;20077;-74
2022/11/14 15:01:03;;;;;;;2.80;2.28;;;;;;;21.00;34.35;100172.53;4502488;28;20050;-74
2022/11/14 15:03:39;;;;;;;2.97;2.40;;;;;;;21.00;34.30;100161.06;4502186;28;20098;-74
2022/11/14 15:06:43;;;;;;;2.85;2.30;;;;;;;21.00;34.09;100141.81;4502243;28;20054;-74
2022/11/14 15:09:19;;;;;;;2.72;2.17;;;;;;;21.00;33.96;100136.09;4469139;28;20041;-74
2022/11/14 15:11:51;;;;;;;2.40;2.10;;;;;;;21.01;34.07;100137.72;4500941;28;20045;-74
2022/11/14 15:14:34;;;;;;;2.97;2.40;;;;;;;20.96;33.91;100120.84;4501410;28;20054;-74
2022/11/14 15:17:04;;;;;;;2.60;2.10;;;;;;;21.01;34.24;100120.53;4500260;28;20718;-72
2022/11/14 15:19:39;;;;;;;3.53;2.67;;;;;;;21.02;34.21;100133.66;4501553;28;20042;-73
2022/11/14 15:22:09;;;;;;;4.05;2.80;;;;;;;21.02;34.04;100113.59;4501220;28;20041;-73